23/05/05 - 13h:31mDenunciar

McDonnell Douglas F/A-18C Hornet

METAR SBPB 231600Z 09017KT 8000 -RA FEW013 SCT020 OVC080 27/25 Q1011=

Comentários (0)

Fotos postadas a mais de 15 dias não podem receber comentários.